Time;durP1;ratioP1;P1;durP2;ratioP2;P2;SDS_P1;SDS_P2;PMS_P1;PMS_P2;Temp;Humidity;BMP_temperature;BMP_pressure;BME280_temperature;BME280_humidity;BME280_pressure;Samples;Min_cycle;Max_cycle;Signal;HPM_P1;HPM_P2
2022/04/07 00:01:26;;;;;;;4.97;2.40;;;;;;;9.17;85.75;99231.13;4998698;28;20208;-81
2022/04/07 00:03:52;;;;;;;4.63;2.10;;;;;;;9.16;85.77;99231.97;4992896;28;20031;-81
2022/04/07 00:06:17;;;;;;;8.70;2.60;;;;;;;9.16;85.37;99225.94;4994083;28;20026;-80
2022/04/07 00:08:42;;;;;;;6.65;2.67;;;;;;;9.14;85.60;99212.03;5004835;28;20081;-80
2022/04/07 00:11:08;;;;;;;7.47;2.25;;;;;;;9.15;85.30;99213.78;4996961;28;20011;-80
2022/04/07 00:13:34;;;;;;;5.75;2.50;;;;;;;9.13;85.03;99207.75;4995222;28;20069;-80
2022/04/07 00:16:00;;;;;;;6.40;2.50;;;;;;;9.13;84.84;99208.59;4989856;28;20038;-81
2022/04/07 00:18:26;;;;;;;7.40;2.40;;;;;;;9.11;84.78;99206.84;5000343;28;20034;-80
2022/04/07 00:20:55;;;;;;;6.97;2.83;;;;;;;9.10;84.66;99200.78;4988002;28;20046;-81
2022/04/07 00:23:21;;;;;;;12.68;2.97;;;;;;;9.09;84.84;99199.03;4995207;28;20145;-81
2022/04/07 00:25:47;;;;;;;5.43;2.25;;;;;;;9.09;85.42;99204.25;4988056;28;20316;-81
2022/04/07 00:28:13;;;;;;;6.90;2.70;;;;;;;9.08;84.73;99192.13;5003618;28;20165;-78
2022/04/07 00:30:39;;;;;;;6.55;2.55;;;;;;;9.09;85.06;99196.44;5003435;28;20026;-77
2022/04/07 00:33:05;;;;;;;6.35;1.95;;;;;;;9.07;85.19;99177.41;4995687;28;20022;-77
2022/04/07 00:35:31;;;;;;;6.05;2.20;;;;;;;9.11;84.92;99166.16;4992271;28;20030;-77
2022/04/07 00:37:56;;;;;;;8.23;2.60;;;;;;;9.09;85.45;99159.22;4995346;28;20088;-77
2022/04/07 00:40:22;;;;;;;8.10;2.45;;;;;;;9.09;85.54;99161.81;4996568;28;20034;-77
2022/04/07 00:42:49;;;;;;;8.00;2.40;;;;;;;9.07;85.92;99148.81;5000398;28;20065;-77
2022/04/07 00:45:15;;;;;;;6.90;2.50;;;;;;;9.05;85.82;99141.03;4997285;28;20053;-77
2022/04/07 00:47:42;;;;;;;6.05;2.53;;;;;;;9.05;85.41;99147.94;4999282;28;20010;-77
2022/04/07 00:50:08;;;;;;;9.80;3.00;;;;;;;9.07;84.86;99142.75;5004426;28;20096;-77
2022/04/07 00:52:34;;;;;;;8.60;3.08;;;;;;;9.07;85.60;99128.03;5004494;28;20253;-77
2022/04/07 00:55:01;;;;;;;7.85;2.95;;;;;;;9.07;85.96;99132.34;5001857;28;20030;-78
2022/04/07 00:57:27;;;;;;;7.95;2.90;;;;;;;9.04;86.62;99128.03;5000569;28;20096;-77
2022/04/07 00:59:53;;;;;;;9.05;2.92;;;;;;;9.05;86.03;99121.97;5000183;28;20029;-77
2022/04/07 01:02:19;;;;;;;6.50;2.80;;;;;;;9.03;86.31;99121.09;4989792;28;20085;-77
2022/04/07 01:04:45;;;;;;;8.50;2.92;;;;;;;9.02;86.70;99114.16;4991252;28;20027;-77
2022/04/07 01:07:11;;;;;;;8.07;3.15;;;;;;;8.99;87.41;99116.75;4999567;28;20077;-77
2022/04/07 01:09:37;;;;;;;10.00;3.30;;;;;;;8.98;87.67;99117.59;4993446;28;20276;-77
2022/04/07 01:12:02;;;;;;;7.82;2.92;;;;;;;8.97;87.55;99100.31;4991554;28;20034;-77
2022/04/07 01:14:28;;;;;;;8.65;2.90;;;;;;;8.93;87.99;99106.38;4993962;28;20034;-77
2022/04/07 01:16:53;;;;;;;9.70;3.20;;;;;;;8.94;87.64;99100.31;5000433;28;20034;-77
2022/04/07 01:19:18;;;;;;;11.07;3.03;;;;;;;8.92;87.50;99087.31;4994249;28;20068;-77
2022/04/07 01:21:45;;;;;;;10.45;3.10;;;;;;;8.93;87.47;99104.63;4995191;28;20022;-77
2022/04/07 01:24:12;;;;;;;9.93;2.72;;;;;;;8.93;87.47;99095.97;4992919;28;20308;-77
2022/04/07 01:26:46;;;;;;;9.18;3.50;;;;;;;8.90;87.80;99086.44;4998402;28;20089;-81
2022/04/07 01:29:15;;;;;;;9.73;3.50;;;;;;;8.92;87.13;99076.94;4996035;28;20069;-81
2022/04/07 01:31:42;;;;;;;6.22;2.85;;;;;;;8.91;86.91;99074.31;4999976;28;20081;-81
2022/04/07 01:34:12;;;;;;;10.90;3.10;;;;;;;8.94;86.38;99067.41;5002611;28;20303;-82
2022/04/07 01:36:40;;;;;;;9.65;3.10;;;;;;;8.96;86.11;99047.47;4999152;28;20030;-80
2022/04/07 01:39:07;;;;;;;9.10;3.25;;;;;;;8.96;86.09;99046.63;5003485;28;20088;-81
2022/04/07 01:41:34;;;;;;;7.47;3.15;;;;;;;8.99;85.47;99050.09;5003878;28;20018;-80
2022/04/07 01:44:01;;;;;;;9.13;3.22;;;;;;;8.97;85.78;99035.38;5003433;28;20033;-81
2022/04/07 01:46:26;;;;;;;9.18;3.08;;;;;;;8.97;86.00;99032.78;5002543;28;20029;-81
2022/04/07 01:48:54;;;;;;;6.45;2.15;;;;;;;8.99;85.28;99015.44;5004093;28;20010;-81
2022/04/07 01:51:22;;;;;;;9.23;2.88;;;;;;;8.99;85.58;99034.53;5003296;28;20026;-81
2022/04/07 01:53:48;;;;;;;7.43;3.33;;;;;;;9.01;85.52;99018.94;5002663;28;20060;-82
2022/04/07 01:56:13;;;;;;;10.45;3.15;;;;;;;9.03;85.26;99012.00;5000157;28;20026;-81
2022/04/07 01:58:39;;;;;;;7.68;2.95;;;;;;;9.00;85.65;99014.59;4994517;28;20041;-82
2022/04/07 02:01:04;;;;;;;9.07;2.88;;;;;;;9.01;85.94;99009.41;4998364;28;20018;-81
2022/04/07 02:03:30;;;;;;;8.38;2.65;;;;;;;9.01;85.74;99005.94;4998442;28;20026;-80
2022/04/07 02:06:15;;;;;;;8.68;3.38;;;;;;;9.01;85.82;99001.59;4998572;28;20272;-81
2022/04/07 02:08:41;;;;;;;7.82;2.70;;;;;;;9.01;85.52;99003.34;4995813;28;20014;-82
2022/04/07 02:11:07;;;;;;;6.65;2.58;;;;;;;9.01;86.05;99024.13;5000308;28;20072;-81
2022/04/07 02:13:33;;;;;;;10.27;2.97;;;;;;;9.00;86.26;99005.06;5001578;28;20261;-81
2022/04/07 02:15:59;;;;;;;8.85;2.60;;;;;;;9.01;86.05;98990.34;4995291;28;20240;-81
2022/04/07 02:18:24;;;;;;;10.95;3.10;;;;;;;9.00;86.13;98996.41;4998899;28;20029;-81
2022/04/07 02:20:49;;;;;;;11.27;3.45;;;;;;;8.96;86.20;98989.47;4992870;28;20288;-81
2022/04/07 02:23:15;;;;;;;8.60;2.95;;;;;;;8.96;85.92;98984.28;4995396;28;20019;-81
2022/04/07 02:25:40;;;;;;;6.30;2.80;;;;;;;8.97;86.05;98981.69;4990822;28;20041;-81
2022/04/07 02:28:05;;;;;;;13.30;3.17;;;;;;;8.99;85.72;98984.28;4999969;28;20260;-81
2022/04/07 02:30:31;;;;;;;12.52;2.72;;;;;;;8.99;85.69;98985.16;4998421;28;20026;-81
2022/04/07 02:32:56;;;;;;;12.15;2.97;;;;;;;9.01;85.74;98977.38;4999119;28;20202;-81
2022/04/07 02:35:21;;;;;;;8.93;2.55;;;;;;;9.05;85.51;98986.88;4999763;28;20010;-80
2022/04/07 02:37:46;;;;;;;9.82;3.00;;;;;;;9.05;85.20;98976.47;4997912;28;20190;-81
2022/04/07 02:40:13;;;;;;;9.45;2.85;;;;;;;9.08;84.53;98967.81;4991876;28;20300;-80
2022/04/07 02:42:39;;;;;;;11.13;3.10;;;;;;;9.06;84.98;98965.22;4994576;28;20081;-81
2022/04/07 02:45:05;;;;;;;11.40;2.78;;;;;;;9.06;84.07;98954.84;5000893;28;20273;-81
2022/04/07 02:47:38;;;;;;;8.63;2.65;;;;;;;9.08;84.28;98954.81;4998054;28;20024;-80
2022/04/07 02:50:04;;;;;;;8.88;2.92;;;;;;;9.07;84.24;98934.91;4998386;28;20068;-80
2022/04/07 02:52:29;;;;;;;8.88;2.60;;;;;;;9.08;84.46;98934.94;5002007;28;20042;-81
2022/04/07 02:54:55;;;;;;;9.05;3.00;;;;;;;9.11;83.78;98934.91;5001999;28;20327;-81
2022/04/07 02:57:24;;;;;;;10.40;2.90;;;;;;;9.16;83.03;98919.31;4994308;28;20042;-81
2022/04/07 02:59:49;;;;;;;;;;;;;;;9.16;83.95;98929.72;5000496;28;20331;-81
2022/04/07 03:02:15;;;;;;;12.02;3.13;;;;;;;9.15;83.08;98915.88;5004210;28;19976;-81
2022/04/07 03:04:40;;;;;;;9.93;2.95;;;;;;;9.16;83.07;98909.78;5001468;28;20064;-81
2022/04/07 03:07:05;;;;;;;9.73;3.30;;;;;;;9.16;83.29;98906.31;4999967;28;20033;-81
2022/04/07 03:09:31;;;;;;;7.35;2.65;;;;;;;9.21;82.46;98896.78;4996082;28;20025;-81
2022/04/07 03:11:56;;;;;;;8.18;2.83;;;;;;;9.19;83.03;98893.31;5004282;28;20018;-81
2022/04/07 03:14:22;;;;;;;7.60;2.80;;;;;;;9.23;81.74;98875.13;4997915;28;20253;-81
2022/04/07 03:16:48;;;;;;;6.68;2.80;;;;;;;9.22;82.50;98870.81;5000856;28;20050;-81
2022/04/07 03:19:16;;;;;;;12.20;3.15;;;;;;;9.23;82.94;98871.66;5000162;28;20061;-82
2022/04/07 03:21:41;;;;;;;9.07;2.85;;;;;;;9.27;82.18;98869.91;5002936;28;20022;-81
2022/04/07 03:24:07;;;;;;;11.02;3.17;;;;;;;9.26;82.06;98870.78;5003815;28;20022;-82
2022/04/07 03:26:32;;;;;;;6.88;3.20;;;;;;;9.29;82.10;98857.78;4996894;28;20037;-81
2022/04/07 03:28:57;;;;;;;10.05;3.40;;;;;;;9.28;82.11;98856.91;5001793;28;20022;-81
2022/04/07 03:31:22;;;;;;;11.88;3.17;;;;;;;9.26;82.11;98853.47;4999796;28;20019;-80
2022/04/07 03:33:48;;;;;;;10.07;2.85;;;;;;;9.31;81.60;98863.84;5000885;28;20034;-81
2022/04/07 03:36:13;;;;;;;12.13;3.33;;;;;;;9.30;81.25;98846.50;5003102;28;20096;-81
2022/04/07 03:38:39;;;;;;;10.52;3.03;;;;;;;9.32;81.39;98834.38;5003968;28;20026;-81
2022/04/07 03:41:05;;;;;;;7.15;2.95;;;;;;;9.36;80.46;98841.31;5002900;28;20137;-80
2022/04/07 03:43:31;;;;;;;10.02;2.58;;;;;;;9.34;80.81;98837.81;4990741;28;20030;-81
2022/04/07 03:45:57;;;;;;;8.52;3.20;;;;;;;9.36;80.88;98838.72;5002896;28;20037;-81
2022/04/07 03:48:22;;;;;;;11.43;2.85;;;;;;;9.34;80.65;98823.13;5001113;28;20021;-81
2022/04/07 03:50:47;;;;;;;9.02;2.80;;;;;;;9.32;81.58;98830.03;5002903;28;20026;-81
2022/04/07 03:53:12;;;;;;;13.05;3.08;;;;;;;9.32;81.17;98830.03;4999437;28;20042;-80
2022/04/07 03:55:38;;;;;;;9.32;2.90;;;;;;;9.33;81.08;98810.97;5000942;28;20232;-80
2022/04/07 03:58:03;;;;;;;12.00;2.65;;;;;;;9.35;80.80;98805.78;4994526;28;20057;-81
2022/04/07 04:00:29;;;;;;;9.25;2.70;;;;;;;9.35;80.64;98804.03;5000907;28;20436;-80
2022/04/07 04:02:54;;;;;;;11.30;3.05;;;;;;;9.36;80.88;98800.56;4999645;28;20257;-81
2022/04/07 04:05:20;;;;;;;10.77;3.30;;;;;;;9.34;80.89;98778.94;5003046;28;20018;-80
2022/04/07 04:07:45;;;;;;;6.80;2.83;;;;;;;9.34;81.09;98768.53;4996225;28;20033;-81
2022/04/07 04:10:10;;;;;;;9.27;3.40;;;;;;;9.38;80.44;98774.56;4999148;28;20037;-80
2022/04/07 04:12:36;;;;;;;9.48;3.10;;;;;;;9.35;80.54;98759.00;4998576;28;20284;-81
2022/04/07 04:15:02;;;;;;;10.48;2.78;;;;;;;9.35;80.71;98754.66;4996687;28;20105;-80
2022/04/07 04:17:32;;;;;;;9.50;3.08;;;;;;;9.36;80.74;98734.75;4997146;28;20085;-81
2022/04/07 04:19:57;;;;;;;;;;;;;;;9.36;81.36;98720.00;4996408;28;20232;-81
2022/04/07 04:22:22;;;;;;;6.97;3.15;;;;;;;9.33;80.79;98714.81;5000939;28;19906;-81
2022/04/07 04:24:48;;;;;;;6.15;2.55;;;;;;;9.36;80.56;98688.81;5000776;28;20069;-80
2022/04/07 04:27:13;;;;;;;10.65;2.90;;;;;;;9.38;80.36;98684.47;5000555;28;20018;-80
2022/04/07 04:29:43;;;;;;;5.47;2.30;;;;;;;9.34;80.75;98693.16;5002376;28;20025;-80
2022/04/07 04:32:09;;;;;;;6.43;2.28;;;;;;;9.36;80.23;98672.38;5003352;28;20283;-81
2022/04/07 04:34:34;;;;;;;8.88;2.33;;;;;;;9.38;79.83;98687.09;5001690;28;20045;-81
2022/04/07 04:37:00;;;;;;;6.75;2.28;;;;;;;9.39;80.11;98682.72;4996342;28;20054;-80
2022/04/07 04:39:25;;;;;;;7.88;2.63;;;;;;;9.39;80.07;98667.13;5000390;28;20030;-81
2022/04/07 04:41:50;;;;;;;6.65;2.05;;;;;;;9.43;79.93;98665.38;5000962;28;20045;-80
2022/04/07 04:44:16;;;;;;;5.80;2.25;;;;;;;9.42;80.31;98661.91;5002012;28;20028;-80
2022/04/07 04:46:41;;;;;;;5.47;2.17;;;;;;;9.41;80.95;98657.59;4994663;28;20022;-81
2022/04/07 04:49:07;;;;;;;7.15;2.22;;;;;;;9.41;81.14;98642.00;4990040;28;20030;-81
2022/04/07 04:51:32;;;;;;;7.40;2.28;;;;;;;9.40;81.86;98658.47;4997872;28;20022;-81
2022/04/07 04:53:57;;;;;;;4.90;2.10;;;;;;;9.37;82.30;98637.69;5002251;28;20280;-81
2022/04/07 04:56:23;;;;;;;6.40;2.05;;;;;;;9.36;83.07;98642.03;5003548;28;20026;-81
2022/04/07 04:58:48;;;;;;;6.95;2.00;;;;;;;9.34;83.44;98633.38;4992652;28;20349;-82
2022/04/07 05:01:13;;;;;;;6.35;2.13;;;;;;;9.33;83.56;98631.66;4999445;28;20021;-81
2022/04/07 05:03:39;;;;;;;5.28;1.80;;;;;;;9.36;83.76;98607.38;5001456;28;20264;-81
2022/04/07 05:06:04;;;;;;;5.07;2.00;;;;;;;9.32;84.29;98606.53;5001389;28;20165;-81
2022/04/07 05:08:29;;;;;;;5.05;1.90;;;;;;;9.30;84.05;98592.69;5001018;28;20276;-81
2022/04/07 05:10:54;;;;;;;5.03;1.80;;;;;;;9.27;84.36;98576.25;4997470;28;20018;-81
2022/04/07 05:13:22;;;;;;;4.63;1.80;;;;;;;9.30;84.53;98595.31;4996406;28;20057;-82
2022/04/07 05:15:47;;;;;;;3.65;1.55;;;;;;;9.25;84.36;98585.81;5000117;28;20024;-81
2022/04/07 05:18:13;;;;;;;5.68;1.73;;;;;;;9.24;84.64;98584.97;4992583;28;20664;-82
2022/04/07 05:20:38;;;;;;;5.50;1.60;;;;;;;9.25;84.59;98576.28;4998977;28;20037;-81
2022/04/07 05:23:03;;;;;;;6.20;2.10;;;;;;;9.21;84.55;98570.25;4994937;28;20034;-81
2022/04/07 05:25:29;;;;;;;5.65;2.10;;;;;;;9.21;84.71;98565.06;4995143;28;20261;-82
2022/04/07 05:27:55;;;;;;;5.63;1.98;;;;;;;9.18;85.23;98554.69;4999101;28;20033;-82
2022/04/07 05:30:20;;;;;;;4.15;1.80;;;;;;;9.25;85.11;98554.63;4994429;28;20017;-81
2022/04/07 05:32:46;;;;;;;6.68;2.83;;;;;;;9.16;86.04;98535.63;4995520;28;20089;-81
2022/04/07 05:35:12;;;;;;;5.22;2.03;;;;;;;9.13;86.44;98540.84;4999421;28;20026;-82
2022/04/07 05:37:38;;;;;;;6.20;2.50;;;;;;;9.15;86.45;98539.13;4993027;28;20089;-82
2022/04/07 05:40:04;;;;;;;6.60;2.40;;;;;;;9.10;87.15;98535.69;4997467;28;20023;-81
2022/04/07 05:42:30;;;;;;;7.13;2.20;;;;;;;9.06;87.92;98508.00;4997759;28;20032;-82
2022/04/07 05:44:55;;;;;;;6.90;2.70;;;;;;;9.01;88.73;98513.25;4994871;28;20058;-82
2022/04/07 05:47:21;;;;;;;6.40;2.67;;;;;;;8.97;88.97;98518.47;5000328;28;20044;-80
2022/04/07 05:49:46;;;;;;;7.00;3.08;;;;;;;8.93;89.88;98503.78;4992555;28;20068;-82
2022/04/07 05:52:11;;;;;;;5.03;2.67;;;;;;;8.90;89.57;98496.03;4989973;28;20150;-82
2022/04/07 05:54:37;;;;;;;8.05;3.05;;;;;;;8.85;90.48;98485.69;5000997;28;20041;-82
2022/04/07 05:57:02;;;;;;;6.60;3.30;;;;;;;8.83;90.51;98475.28;4993042;28;20065;-80
2022/04/07 05:59:28;;;;;;;6.90;2.92;;;;;;;8.85;90.43;98478.75;5002388;28;20037;-82
2022/04/07 06:01:53;;;;;;;5.78;2.90;;;;;;;8.82;90.45;98463.19;5000799;28;20026;-82
2022/04/07 06:04:18;;;;;;;7.28;3.08;;;;;;;8.86;89.96;98445.84;5003013;28;20046;-82
2022/04/07 06:06:44;;;;;;;6.45;3.17;;;;;;;8.81;89.92;98445.88;4991433;28;20089;-82
2022/04/07 06:09:10;;;;;;;9.38;3.78;;;;;;;8.78;90.17;98440.72;4995384;28;20276;-82
2022/04/07 06:11:35;;;;;;;8.07;3.60;;;;;;;8.77;90.33;98449.38;4989718;28;20085;-82
2022/04/07 06:14:01;;;;;;;9.32;3.55;;;;;;;8.80;89.83;98444.16;4999497;28;20045;-82
2022/04/07 06:16:26;;;;;;;9.77;3.35;;;;;;;8.76;90.31;98434.69;4999069;28;20042;-82
2022/04/07 06:18:52;;;;;;;8.05;3.38;;;;;;;8.76;90.31;98428.63;4998405;28;20148;-82
2022/04/07 06:21:18;;;;;;;9.38;3.50;;;;;;;8.75;90.25;98427.75;4999659;28;20033;-82
2022/04/07 06:23:44;;;;;;;10.35;3.17;;;;;;;8.75;89.73;98404.41;5004338;28;20034;-82
2022/04/07 06:26:10;;;;;;;6.45;3.00;;;;;;;8.75;90.39;98391.41;5000817;28;20268;-82
2022/04/07 06:28:35;;;;;;;9.15;3.83;;;;;;;8.75;90.88;98394.00;4997127;28;20021;-82
2022/04/07 06:31:00;;;;;;;7.80;2.70;;;;;;;8.76;90.40;98389.66;4999246;28;20030;-82
2022/04/07 06:33:26;;;;;;;5.05;2.70;;;;;;;8.73;90.43;98387.94;5000757;28;20026;-81
2022/04/07 06:35:52;;;;;;;7.95;2.72;;;;;;;8.74;90.73;98392.28;5005032;28;20089;-82
2022/04/07 06:38:18;;;;;;;5.70;2.35;;;;;;;8.74;90.51;98381.03;4997951;28;20085;-82
2022/04/07 06:40:44;;;;;;;7.32;2.33;;;;;;;8.73;90.76;98371.53;5002282;28;20064;-82
2022/04/07 06:43:10;;;;;;;9.63;2.25;;;;;;;8.78;90.33;98367.16;5002771;28;20094;-82
2022/04/07 06:45:35;;;;;;;7.32;2.58;;;;;;;8.72;91.06;98346.44;5003615;28;20026;-82
2022/04/07 06:48:00;;;;;;;5.80;2.10;;;;;;;8.71;90.95;98340.38;5005047;28;20232;-82
2022/04/07 06:50:26;;;;;;;6.90;2.20;;;;;;;8.70;91.09;98331.75;5001945;28;20284;-82
2022/04/07 06:52:53;;;;;;;6.40;2.28;;;;;;;8.72;91.02;98323.94;5006461;28;20026;-82
2022/04/07 06:55:18;;;;;;;8.20;2.72;;;;;;;8.70;91.57;98323.06;4999372;28;20282;-82
2022/04/07 06:57:58;;;;;;;6.15;2.08;;;;;;;8.67;91.69;98325.72;5000557;28;20033;-77
2022/04/07 07:00:25;;;;;;;7.30;1.67;;;;;;;8.68;91.41;98314.47;5000036;28;20145;-77
2022/04/07 07:02:53;;;;;;;9.70;1.83;;;;;;;8.64;91.89;98298.03;4999883;28;20026;-78
2022/04/07 07:05:20;;;;;;;6.03;1.80;;;;;;;8.65;91.97;98280.75;5004070;28;20041;-77
2022/04/07 07:07:45;;;;;;;6.28;2.08;;;;;;;8.66;91.96;98272.06;4994355;28;20018;-78
2022/04/07 07:10:11;;;;;;;6.65;1.98;;;;;;;8.64;92.46;98276.44;5001529;28;20292;-77
2022/04/07 07:12:36;;;;;;;7.50;2.20;;;;;;;8.62;92.60;98270.41;5000564;28;20038;-77
2022/04/07 07:15:03;;;;;;;6.93;2.00;;;;;;;8.65;92.43;98259.97;5002729;28;20098;-77
2022/04/07 07:17:33;;;;;;;9.35;2.22;;;;;;;8.64;92.80;98247.88;5004522;28;20072;-78
2022/04/07 07:20:03;;;;;;;5.38;1.77;;;;;;;8.63;93.17;98239.22;5005702;28;20256;-78
2022/04/07 07:22:28;;;;;;;6.90;2.30;;;;;;;8.62;93.27;98231.47;5004887;28;20062;-77
2022/04/07 07:24:54;;;;;;;7.22;1.85;;;;;;;8.65;92.83;98208.06;5005422;28;20033;-78
2022/04/07 07:27:19;;;;;;;6.57;2.05;;;;;;;8.65;93.34;98215.84;5004933;28;20089;-77
2022/04/07 07:29:44;;;;;;;6.18;2.22;;;;;;;8.62;93.75;98205.50;4996677;28;20049;-77
2022/04/07 07:32:10;;;;;;;4.15;1.88;;;;;;;8.65;93.76;98189.91;5002467;28;20015;-77
2022/04/07 07:34:35;;;;;;;5.53;1.90;;;;;;;8.63;94.03;98181.25;5005043;28;20212;-77
2022/04/07 07:37:00;;;;;;;5.82;1.83;;;;;;;8.66;93.93;98171.72;5002047;28;20041;-81
2022/04/07 07:39:26;;;;;;;4.85;1.90;;;;;;;8.68;94.24;98182.06;5001439;28;20049;-81
2022/04/07 07:41:51;;;;;;;6.78;2.38;;;;;;;8.72;94.54;98190.66;4999252;28;20035;-81
2022/04/07 07:44:16;;;;;;;5.53;1.95;;;;;;;8.70;94.71;98216.66;4987763;28;20101;-81
2022/04/07 07:46:42;;;;;;;6.53;2.20;;;;;;;8.72;95.03;98251.25;5004303;28;20026;-78
2022/04/07 07:49:08;;;;;;;3.17;1.00;;;;;;;8.57;89.79;98298.13;5005297;28;20085;-77
2022/04/07 07:51:34;;;;;;;4.25;0.90;;;;;;;8.29;87.92;98358.00;5005625;28;20029;-75
2022/04/07 07:53:59;;;;;;;2.90;0.60;;;;;;;8.03;87.63;98364.22;5002714;28;20014;-75
2022/04/07 07:56:24;;;;;;;2.63;0.50;;;;;;;7.75;89.00;98360.94;5000276;28;20018;-76
2022/04/07 07:58:50;;;;;;;2.00;0.60;;;;;;;7.55;89.10;98372.25;5004768;28;20162;-75
2022/04/07 08:01:15;;;;;;;2.08;0.70;;;;;;;7.42;89.72;98357.66;5003118;28;20018;-75
2022/04/07 08:03:40;;;;;;;4.10;1.10;;;;;;;7.33;89.98;98348.19;5004494;28;20267;-76
2022/04/07 08:06:05;;;;;;;4.82;1.08;;;;;;;7.27;90.18;98337.81;5005707;28;20018;-76
2022/04/07 08:08:31;;;;;;;3.67;1.10;;;;;;;7.20;90.10;98351.66;5003125;28;20073;-76
2022/04/07 08:10:56;;;;;;;4.75;1.20;;;;;;;7.14;90.00;98316.31;5005321;28;20090;-75
2022/04/07 08:13:21;;;;;;;3.60;1.45;;;;;;;7.12;91.06;98359.47;5004568;28;20137;-76
2022/04/07 08:15:47;;;;;;;3.65;1.20;;;;;;;7.09;90.71;98331.84;5001318;28;20045;-76
2022/04/07 08:18:12;;;;;;;4.72;1.33;;;;;;;7.06;90.67;98318.91;5004988;28;20056;-76
2022/04/07 08:20:37;;;;;;;5.75;1.27;;;;;;;7.06;90.81;98326.66;4999548;28;20292;-77
2022/04/07 08:23:03;;;;;;;3.97;1.20;;;;;;;7.10;91.88;98325.81;4998509;28;20177;-77
2022/04/07 08:25:28;;;;;;;5.97;1.20;;;;;;;7.13;91.13;98320.59;5002519;28;20030;-76
2022/04/07 08:27:53;;;;;;;3.30;1.00;;;;;;;7.14;91.32;98326.66;5003686;28;20014;-76
2022/04/07 08:30:18;;;;;;;3.22;0.93;;;;;;;7.18;92.04;98324.91;4997088;28;20030;-76
2022/04/07 08:32:44;;;;;;;2.78;0.82;;;;;;;7.20;91.47;98308.50;5000697;28;20053;-76
2022/04/07 08:35:10;;;;;;;4.97;1.00;;;;;;;7.24;92.14;98309.34;4998346;28;20048;-76
2022/04/07 08:37:36;;;;;;;4.10;1.10;;;;;;;7.28;92.14;98327.44;4996300;28;20045;-76
2022/04/07 08:40:06;;;;;;;5.57;1.00;;;;;;;7.36;93.50;98336.91;5002999;28;20022;-76
2022/04/07 08:42:33;;;;;;;4.20;1.63;;;;;;;7.44;92.91;98324.81;5002203;28;20040;-76
2022/04/07 08:44:58;;;;;;;4.95;1.30;;;;;;;7.51;92.82;98315.28;5004905;28;20037;-76
2022/04/07 08:47:24;;;;;;;6.13;1.25;;;;;;;7.56;92.04;98308.34;5003409;28;20022;-77
2022/04/07 08:49:50;;;;;;;4.90;1.13;;;;;;;7.59;92.19;98304.00;5003319;28;20096;-76
2022/04/07 08:52:15;;;;;;;4.70;1.20;;;;;;;7.65;92.75;98308.31;5000657;28;20024;-76
2022/04/07 08:54:42;;;;;;;3.72;1.30;;;;;;;7.71;92.66;98300.47;5000459;28;20054;-76
2022/04/07 08:57:08;;;;;;;5.35;1.38;;;;;;;7.79;93.29;98300.41;5001449;28;20018;-77
2022/04/07 08:59:34;;;;;;;7.53;1.25;;;;;;;8.04;91.55;98295.94;5003121;28;20271;-77
2022/04/07 09:02:03;;;;;;;4.60;1.27;;;;;;;8.10;92.64;98311.44;5000888;28;20034;-76
2022/04/07 09:04:30;;;;;;;7.05;1.77;;;;;;;8.32;92.88;98304.34;5001252;28;20022;-76
2022/04/07 09:06:56;;;;;;;5.25;1.63;;;;;;;8.43;92.75;98303.41;4992769;28;20089;-76
2022/04/07 09:09:22;;;;;;;9.00;2.13;;;;;;;8.58;92.47;98312.84;5004642;28;20025;-77
2022/04/07 09:11:53;;;;;;;4.72;1.95;;;;;;;8.68;92.10;98304.06;4992356;28;20117;-76
2022/04/07 09:14:18;;;;;;;5.45;2.00;;;;;;;8.80;89.80;98283.16;5004152;28;20084;-76
2022/04/07 09:16:44;;;;;;;6.85;2.20;;;;;;;8.84;90.30;98316.00;5001631;28;20280;-80
2022/04/07 09:19:09;;;;;;;6.65;2.15;;;;;;;8.94;90.69;98305.56;4997334;28;20042;-80
2022/04/07 09:21:36;;;;;;;4.47;2.05;;;;;;;9.09;90.39;98310.56;5003749;28;20022;-80
2022/04/07 09:24:05;;;;;;;7.43;2.08;;;;;;;9.25;90.55;98307.78;4999994;28;20050;-80
2022/04/07 09:26:31;;;;;;;5.43;1.77;;;;;;;9.35;88.05;98318.03;5002076;28;20022;-80
2022/04/07 09:28:57;;;;;;;4.45;2.10;;;;;;;9.46;88.73;98302.31;4998896;28;20028;-79
2022/04/07 09:31:23;;;;;;;5.72;1.95;;;;;;;9.58;88.78;98312.53;4994785;28;20146;-80
2022/04/07 09:33:56;;;;;;;6.60;2.40;;;;;;;9.73;89.51;98306.28;5003776;28;20089;-79
2022/04/07 09:36:23;;;;;;;6.80;2.53;;;;;;;9.81;86.81;98334.78;5000346;28;20072;-79
2022/04/07 09:38:53;;;;;;;5.15;2.17;;;;;;;9.81;85.02;98321.78;4999266;28;20160;-79
2022/04/07 09:41:20;;;;;;;4.43;2.13;;;;;;;9.79;83.40;98318.34;5001830;28;20045;-79
2022/04/07 09:43:47;;;;;;;7.35;2.47;;;;;;;9.78;84.83;98337.44;4994015;28;20277;-79
2022/04/07 09:46:17;;;;;;;8.73;2.42;;;;;;;9.86;84.44;98326.91;5001460;28;20154;-82
2022/04/07 09:48:58;;;;;;;7.57;2.83;;;;;;;10.03;84.14;98326.66;4997888;28;20030;-80
2022/04/07 09:51:25;;;;;;;7.65;2.50;;;;;;;10.14;80.92;98319.56;5002186;28;20022;-78
2022/04/07 09:53:55;;;;;;;7.38;2.67;;;;;;;10.31;80.25;98323.63;5003728;28;20026;-78
2022/04/07 09:56:24;;;;;;;5.88;2.83;;;;;;;10.43;81.13;98308.72;5000325;28;20019;-79
2022/04/07 09:58:52;;;;;;;5.18;1.70;;;;;;;10.57;74.54;98313.69;4994125;28;20027;-78
2022/04/07 10:01:17;;;;;;;5.80;1.80;;;;;;;10.69;73.98;98322.16;4999859;28;20029;-78
2022/04/07 10:03:43;;;;;;;6.93;2.17;;;;;;;10.81;73.03;98327.16;4993129;28;20018;-77
2022/04/07 10:06:08;;;;;;;6.03;1.88;;;;;;;10.96;70.57;98313.84;4995735;28;20019;-78
2022/04/07 10:08:34;;;;;;;7.55;2.40;;;;;;;11.01;68.61;98313.75;4992584;28;20011;-78
2022/04/07 10:11:01;;;;;;;5.70;2.40;;;;;;;11.07;69.49;98315.41;4999287;28;20026;-78
2022/04/07 10:13:29;;;;;;;7.07;2.75;;;;;;;11.18;72.10;98307.34;4995303;28;20015;-77
2022/04/07 10:15:55;;;;;;;6.80;2.60;;;;;;;11.25;69.50;98328.06;4994393;28;20030;-78
2022/04/07 10:18:29;;;;;;;5.75;2.00;;;;;;;11.35;67.89;98327.88;4991608;28;20089;-78
2022/04/07 10:20:58;;;;;;;6.05;2.15;;;;;;;11.41;66.65;98338.19;4994943;28;20026;-75
2022/04/07 10:23:34;;;;;;;8.02;2.15;;;;;;;11.41;67.65;98333.84;4993509;28;20060;-75
2022/04/07 10:26:01;;;;;;;9.60;2.42;;;;;;;11.34;69.05;98341.78;5003495;28;20268;-75
2022/04/07 10:28:26;;;;;;;4.55;1.35;;;;;;;11.28;65.29;98338.44;5001454;28;20022;-75
2022/04/07 10:30:53;;;;;;;5.90;1.45;;;;;;;11.20;67.01;98334.25;5003200;28;20158;-75
2022/04/07 10:33:41;;;;;;;6.03;1.75;;;;;;;11.22;69.05;98337.69;4998743;28;20022;-75
2022/04/07 10:36:09;;;;;;;6.53;1.63;;;;;;;11.08;66.74;98351.84;5002343;28;20046;-75
2022/04/07 10:38:42;;;;;;;8.77;1.52;;;;;;;10.91;67.06;98365.19;5003690;28;20032;-76
2022/04/07 10:41:08;;;;;;;7.88;1.42;;;;;;;10.83;67.73;98351.41;4996523;28;20030;-75
2022/04/07 10:43:38;;;;;;;8.27;1.70;;;;;;;10.82;68.44;98356.66;5001251;28;20022;-76
2022/04/07 10:46:06;;;;;;;7.57;1.83;;;;;;;10.77;66.85;98367.16;5001894;28;20105;-75
2022/04/07 10:48:51;;;;;;;5.82;1.50;;;;;;;10.84;69.56;98380.94;4998179;28;20041;-76
2022/04/07 10:51:16;;;;;;;6.70;1.50;;;;;;;11.02;67.26;98390.19;5001999;28;20025;-75
2022/04/07 10:53:53;;;;;;;11.25;1.98;;;;;;;11.26;70.11;98379.28;4998989;28;20018;-75
2022/04/07 10:56:38;;;;;;;7.20;1.45;;;;;;;11.47;67.58;98391.06;5001209;28;20026;-75
2022/04/07 10:59:09;;;;;;;7.85;1.45;;;;;;;11.51;66.67;98402.28;5003055;28;20308;-76
2022/04/07 11:01:52;;;;;;;8.82;1.35;;;;;;;11.48;66.54;98391.91;5006454;28;20173;-75
2022/04/07 11:04:20;;;;;;;5.70;1.42;;;;;;;11.44;67.42;98403.28;5006433;28;20018;-76
2022/04/07 11:07:04;;;;;;;6.82;1.40;;;;;;;11.41;67.48;98398.16;5007232;28;20026;-76
2022/04/07 11:09:54;;;;;;;9.25;1.58;;;;;;;11.41;64.78;98390.31;5005500;28;20054;-75
2022/04/07 11:12:39;;;;;;;11.65;2.05;;;;;;;11.36;65.91;98405.22;5003998;28;20014;-74
2022/04/07 11:15:04;;;;;;;9.23;1.80;;;;;;;11.43;66.93;98430.28;5006665;28;20894;-75
2022/04/07 11:17:31;;;;;;;7.90;1.90;;;;;;;11.46;65.12;98435.44;5002093;28;20022;-75
2022/04/07 11:20:05;;;;;;;9.05;1.80;;;;;;;11.44;65.26;98419.81;5004897;28;20043;-76
2022/04/07 11:22:55;;;;;;;7.70;1.80;;;;;;;11.41;64.37;98419.00;5005156;28;20208;-75
2022/04/07 11:25:25;;;;;;;7.57;1.80;;;;;;;11.40;61.33;98454.66;5004054;28;20162;-75
2022/04/07 11:28:14;;;;;;;8.48;1.77;;;;;;;11.30;62.42;98458.31;5006149;28;20099;-75
2022/04/07 11:30:42;;;;;;;;;;;;;;;11.26;62.39;98451.44;5007117;28;20092;-75
2022/04/07 11:33:14;;;;;;;7.93;1.88;;;;;;;11.06;61.78;98463.06;5006417;28;19905;-75
2022/04/07 11:35:39;;;;;;;8.90;1.50;;;;;;;10.95;62.90;98470.22;5006474;28;20312;-75
2022/04/07 11:38:05;;;;;;;7.90;2.03;;;;;;;10.89;64.23;98486.81;5006218;28;20072;-75